createdAt,value
2023-01-20T00:00:44.639Z,98090.00
2023-01-20T00:03:15.529Z,98091.00
2023-01-20T00:05:53.466Z,98091.00
2023-01-20T00:08:24.443Z,98098.00
2023-01-20T00:10:55.359Z,98097.00
2023-01-20T00:13:26.425Z,98108.00
2023-01-20T00:15:57.296Z,98106.00
2023-01-20T00:18:29.049Z,98103.00
2023-01-20T00:21:09.580Z,98109.00
2023-01-20T00:23:41.460Z,98114.00
2023-01-20T00:26:19.277Z,98113.00
2023-01-20T00:28:53.926Z,98116.00
2023-01-20T00:31:28.490Z,98121.00
2023-01-20T00:34:03.425Z,98124.00
2023-01-20T00:36:34.405Z,98122.00
2023-01-20T00:39:05.985Z,98117.00
2023-01-20T00:41:36.977Z,98126.00
2023-01-20T00:44:07.858Z,98132.00
2023-01-20T00:46:38.856Z,98126.00
2023-01-20T00:49:10.858Z,98132.00
2023-01-20T00:51:41.798Z,98131.00
2023-01-20T00:54:12.678Z,98135.00
2023-01-20T00:56:43.584Z,98137.00
2023-01-20T00:59:14.421Z,98137.00
2023-01-20T01:01:46.217Z,98134.00
2023-01-20T01:04:17.134Z,98136.00
2023-01-20T01:06:50.626Z,98149.00
2023-01-20T01:09:21.957Z,98148.00
2023-01-20T01:11:53.017Z,98154.00
2023-01-20T01:14:24.094Z,98155.00
2023-01-20T01:16:57.332Z,98165.00
2023-01-20T01:19:28.318Z,98163.00
2023-01-20T01:21:59.151Z,98166.00
2023-01-20T01:24:30.038Z,98174.00
2023-01-20T01:27:00.954Z,98169.00
2023-01-20T01:29:31.819Z,98169.00
2023-01-20T01:32:05.304Z,98169.00
2023-01-20T01:34:36.170Z,98176.00
2023-01-20T01:37:07.081Z,98181.00
2023-01-20T01:39:37.922Z,98188.00
2023-01-20T01:42:13.984Z,98191.00
2023-01-20T01:45:09.837Z,98199.00
2023-01-20T01:47:55.231Z,98182.00
2023-01-20T01:50:38.065Z,98201.00
2023-01-20T01:53:10.173Z,98178.00
2023-01-20T01:55:46.695Z,98177.00
2023-01-20T01:58:20.429Z,98183.00
2023-01-20T02:00:51.616Z,98183.00
2023-01-20T02:03:22.952Z,98178.00
2023-01-20T02:05:55.254Z,98188.00
2023-01-20T02:08:26.293Z,98188.00
2023-01-20T02:10:57.217Z,98182.00
2023-01-20T02:13:28.106Z,98193.00
2023-01-20T02:16:21.040Z,98192.00
2023-01-20T02:18:57.433Z,98194.00
2023-01-20T02:22:02.396Z,98202.00
2023-01-20T02:24:55.008Z,98192.00
2023-01-20T02:28:14.103Z,98195.00
2023-01-20T02:31:17.074Z,98199.00
2023-01-20T02:33:52.688Z,98206.00
2023-01-20T02:36:58.085Z,98201.00
2023-01-20T02:39:49.668Z,98207.00
2023-01-20T02:42:27.897Z,98207.00
2023-01-20T02:45:34.296Z,98217.00
2023-01-20T02:48:13.952Z,98216.00
2023-01-20T02:51:20.141Z,98209.00
2023-01-20T02:53:57.184Z,98222.00
2023-01-20T02:56:30.366Z,98221.00
2023-01-20T02:59:17.785Z,98224.00
2023-01-20T03:01:54.830Z,98222.00
2023-01-20T03:04:32.219Z,98220.00
2023-01-20T03:07:04.942Z,98223.00
2023-01-20T03:09:41.866Z,98231.00
2023-01-20T03:12:22.410Z,98224.00
2023-01-20T03:14:53.972Z,98234.00
2023-01-20T03:17:24.898Z,98231.00
2023-01-20T03:19:55.871Z,98240.00
2023-01-20T03:22:27.662Z,98235.00
2023-01-20T03:24:59.879Z,98263.00
2023-01-20T03:27:30.785Z,98247.00
2023-01-20T03:30:01.739Z,98244.00
2023-01-20T03:32:32.896Z,98235.00
2023-01-20T03:35:04.425Z,98247.00
2023-01-20T03:37:35.394Z,98249.00
2023-01-20T03:40:07.550Z,98245.00
2023-01-20T03:42:59.982Z,98257.00
2023-01-20T03:46:01.108Z,98260.00
2023-01-20T03:48:42.114Z,98260.00
2023-01-20T03:51:35.130Z,98266.00
2023-01-20T03:54:15.701Z,98263.00
2023-01-20T03:56:56.816Z,98269.00
2023-01-20T03:59:27.749Z,98264.00
2023-01-20T04:02:03.461Z,98270.00
2023-01-20T04:04:39.341Z,98268.00
2023-01-20T04:07:15.682Z,98278.00
2023-01-20T04:09:54.088Z,98278.00
2023-01-20T04:12:25.027Z,98292.00
2023-01-20T04:14:55.908Z,98272.00
2023-01-20T04:17:30.163Z,98286.00
2023-01-20T04:20:10.460Z,98270.00
2023-01-20T04:22:41.316Z,98287.00
2023-01-20T04:25:19.703Z,98285.00
2023-01-20T04:27:50.647Z,98291.00
2023-01-20T04:30:21.710Z,98289.00
2023-01-20T04:32:52.541Z,98291.00
2023-01-20T04:35:23.591Z,98286.00
2023-01-20T04:37:54.411Z,98301.00
2023-01-20T04:40:25.314Z,98298.00
2023-01-20T04:42:56.209Z,98302.00
2023-01-20T04:45:27.196Z,98308.00
2023-01-20T04:47:58.096Z,98307.00
2023-01-20T04:50:28.967Z,98309.00
2023-01-20T04:53:00.865Z,98319.00
2023-01-20T04:55:33.645Z,98328.00
2023-01-20T04:58:04.616Z,98333.00
2023-01-20T05:00:35.686Z,98332.00
2023-01-20T05:03:06.650Z,98338.00
2023-01-20T05:05:37.539Z,98339.00
2023-01-20T05:08:08.523Z,98339.00
2023-01-20T05:10:39.383Z,98344.00
2023-01-20T05:13:10.224Z,98346.00
2023-01-20T05:15:43.995Z,98339.00
2023-01-20T05:18:16.306Z,98352.00
2023-01-20T05:20:51.394Z,98356.00
2023-01-20T05:23:22.368Z,98356.00
2023-01-20T05:25:54.448Z,98363.00
2023-01-20T05:28:25.523Z,98364.00
2023-01-20T05:30:56.468Z,98367.00
2023-01-20T05:33:27.346Z,98363.00
2023-01-20T05:35:58.245Z,98369.00
2023-01-20T05:38:29.103Z,98372.00
2023-01-20T05:41:05.674Z,98378.00
2023-01-20T05:43:36.888Z,98379.00
2023-01-20T05:46:07.817Z,98383.00
2023-01-20T05:48:38.753Z,98385.00
2023-01-20T05:51:09.627Z,98378.00
2023-01-20T05:53:40.465Z,98391.00
2023-01-20T05:56:16.115Z,98386.00
2023-01-20T05:58:47.139Z,98389.00
2023-01-20T06:01:20.856Z,98389.00
2023-01-20T06:03:51.834Z,98392.00
2023-01-20T06:06:22.844Z,98392.00
2023-01-20T06:08:53.833Z,98389.00
2023-01-20T06:11:25.110Z,98402.00
2023-01-20T06:13:55.944Z,98402.00
2023-01-20T06:16:26.827Z,98402.00
2023-01-20T06:18:57.806Z,98398.00
2023-01-20T06:21:28.755Z,98409.00
2023-01-20T06:23:59.624Z,98406.00
2023-01-20T06:26:30.501Z,98410.00
2023-01-20T06:29:01.648Z,98415.00
2023-01-20T06:31:32.544Z,98419.00
2023-01-20T06:34:03.751Z,98419.00
2023-01-20T06:36:34.624Z,98427.00
2023-01-20T06:39:05.909Z,98431.00
2023-01-20T06:41:36.843Z,98427.00
2023-01-20T06:44:07.701Z,98437.00
2023-01-20T06:46:38.698Z,98443.00
2023-01-20T06:49:09.636Z,98441.00
2023-01-20T06:51:41.848Z,98446.00
2023-01-20T06:54:12.712Z,98457.00
2023-01-20T06:56:43.659Z,98456.00
2023-01-20T06:59:14.511Z,98462.00
2023-01-20T07:01:45.497Z,98471.00
2023-01-20T07:04:16.471Z,98471.00
2023-01-20T07:06:47.422Z,98468.00
2023-01-20T07:09:18.398Z,98478.00
2023-01-20T07:11:49.291Z,98484.00
2023-01-20T07:14:20.188Z,98492.00
2023-01-20T07:16:51.225Z,98489.00
2023-01-20T07:19:22.182Z,98494.00
2023-01-20T07:21:53.123Z,98493.00
2023-01-20T07:24:27.026Z,98493.00
2023-01-20T07:26:57.856Z,98509.00
2023-01-20T07:29:28.774Z,98511.00
2023-01-20T07:31:59.686Z,98517.00
2023-01-20T07:34:30.761Z,98523.00
2023-01-20T07:37:02.426Z,98528.00
2023-01-20T07:39:33.247Z,98527.00
2023-01-20T07:42:04.268Z,98529.00
2023-01-20T07:44:35.147Z,98545.00
2023-01-20T07:47:06.010Z,98541.00
2023-01-20T07:49:36.862Z,98545.00
2023-01-20T07:52:07.841Z,98543.00
2023-01-20T07:54:38.694Z,98555.00
2023-01-20T07:57:09.543Z,98552.00
2023-01-20T07:59:40.456Z,98559.00
2023-01-20T08:02:11.365Z,98557.00
2023-01-20T08:04:42.439Z,98562.00
2023-01-20T08:07:13.379Z,98562.00
2023-01-20T08:09:44.275Z,98554.00
2023-01-20T08:12:15.103Z,98580.00
2023-01-20T08:14:45.954Z,98563.00
2023-01-20T08:17:16.799Z,98572.00
2023-01-20T08:19:47.660Z,98574.00
2023-01-20T08:22:18.576Z,98581.00
2023-01-20T08:24:49.483Z,98569.00
2023-01-20T08:27:20.457Z,98573.00
2023-01-20T08:29:54.507Z,98582.00
2023-01-20T08:32:25.352Z,98576.00
2023-01-20T08:34:56.266Z,98590.00
2023-01-20T08:37:29.975Z,98587.00
2023-01-20T08:40:00.867Z,98586.00
2023-01-20T08:42:31.914Z,98593.00
2023-01-20T08:45:04.691Z,98588.00
2023-01-20T08:47:44.386Z,98589.00
2023-01-20T08:50:16.036Z,98605.00
2023-01-20T08:52:47.407Z,98605.00
2023-01-20T08:55:20.014Z,98616.00
2023-01-20T08:57:50.863Z,98612.00
2023-01-20T09:00:22.217Z,98641.00
2023-01-20T09:02:53.084Z,98614.00
2023-01-20T09:05:24.142Z,98621.00
2023-01-20T09:07:55.007Z,98619.00
2023-01-20T09:10:25.871Z,98630.00
2023-01-20T09:12:56.706Z,98635.00
2023-01-20T09:15:30.302Z,98635.00
2023-01-20T09:18:01.155Z,98631.00
2023-01-20T09:20:32.007Z,98639.00
2023-01-20T09:23:03.210Z,98641.00
2023-01-20T09:25:34.139Z,98640.00
2023-01-20T09:28:06.683Z,98644.00
2023-01-20T09:30:37.654Z,98642.00
2023-01-20T09:33:11.339Z,98643.00
2023-01-20T09:35:42.210Z,98647.00
2023-01-20T09:38:31.517Z,98656.00
2023-01-20T09:41:36.808Z,98652.00
2023-01-20T09:44:46.162Z,98657.00
2023-01-20T09:47:32.499Z,98656.00
2023-01-20T09:50:39.485Z,98655.00
2023-01-20T09:53:24.965Z,98670.00
2023-01-20T09:56:19.554Z,98660.00
2023-01-20T09:59:08.368Z,98657.00
2023-01-20T10:01:58.670Z,98667.00
2023-01-20T10:04:43.627Z,98657.00
2023-01-20T10:07:56.597Z,98661.00
2023-01-20T10:10:45.276Z,98669.00
2023-01-20T10:13:35.266Z,98667.00
2023-01-20T10:16:12.530Z,98660.00
2023-01-20T10:18:52.660Z,98658.00
2023-01-20T10:21:38.044Z,98658.00
2023-01-20T10:24:58.589Z,98668.00
2023-01-20T10:27:31.285Z,98674.00
2023-01-20T10:30:12.365Z,98676.00
2023-01-20T10:32:54.848Z,98670.00
2023-01-20T10:35:32.167Z,98663.00
2023-01-20T10:38:08.426Z,98670.00
2023-01-20T10:40:54.233Z,98675.00
2023-01-20T10:43:26.242Z,98667.00
2023-01-20T10:46:23.673Z,98672.00
2023-01-20T10:49:13.076Z,98671.00
2023-01-20T10:52:38.053Z,98668.00
2023-01-20T10:55:49.221Z,98674.00
2023-01-20T10:58:26.035Z,98675.00
2023-01-20T11:01:00.638Z,98668.00
2023-01-20T11:03:40.632Z,98674.00
2023-01-20T11:06:26.617Z,98673.00
2023-01-20T11:09:01.384Z,98673.00
2023-01-20T11:11:32.376Z,98676.00
2023-01-20T11:14:03.957Z,98675.00
2023-01-20T11:16:38.756Z,98663.00
2023-01-20T11:19:10.012Z,98670.00
2023-01-20T11:21:41.600Z,98670.00
2023-01-20T11:24:43.836Z,98665.00
2023-01-20T11:27:21.450Z,98657.00
2023-01-20T11:29:59.536Z,98661.00
2023-01-20T11:32:36.214Z,98666.00
2023-01-20T11:35:25.324Z,98660.00
2023-01-20T11:37:56.171Z,98667.00
2023-01-20T11:40:28.619Z,98686.00
2023-01-20T11:42:59.502Z,98662.00
2023-01-20T11:45:38.840Z,98659.00
2023-01-20T11:48:18.360Z,98666.00
2023-01-20T11:50:56.133Z,98666.00
2023-01-20T11:53:31.719Z,98666.00
2023-01-20T11:56:14.724Z,98659.00
2023-01-20T11:58:59.081Z,98662.00
2023-01-20T12:01:50.559Z,98669.00
2023-01-20T12:04:43.850Z,98667.00
2023-01-20T12:07:43.680Z,98666.00
2023-01-20T12:10:24.608Z,98671.00
2023-01-20T12:13:05.917Z,98667.00
2023-01-20T12:15:43.243Z,98686.00
2023-01-20T12:19:01.341Z,98675.00
2023-01-20T12:21:43.688Z,98677.00
2023-01-20T12:24:54.365Z,98675.00
2023-01-20T12:27:28.353Z,98688.00
2023-01-20T12:30:07.960Z,98685.00
2023-01-20T12:32:42.854Z,98690.00
2023-01-20T12:35:15.151Z,98703.00
2023-01-20T12:37:58.071Z,98699.00
2023-01-20T12:40:48.273Z,98701.00
2023-01-20T12:43:28.058Z,98697.00
2023-01-20T12:46:20.891Z,98699.00
2023-01-20T12:49:24.103Z,98709.00
2023-01-20T12:52:34.265Z,98711.00
2023-01-20T12:55:32.029Z,98709.00
2023-01-20T12:58:39.942Z,98700.00
2023-01-20T13:01:25.503Z,98707.00
2023-01-20T13:04:23.524Z,98718.00
2023-01-20T13:07:16.016Z,98705.00
2023-01-20T13:10:30.685Z,98703.00
2023-01-20T13:13:23.608Z,98707.00
2023-01-20T13:16:18.157Z,98708.00
2023-01-20T13:19:19.335Z,98707.00
2023-01-20T13:22:06.628Z,98716.00
2023-01-20T13:24:43.235Z,98712.00
2023-01-20T13:27:21.682Z,98707.00
2023-01-20T13:29:59.003Z,98718.00
2023-01-20T13:32:39.100Z,98720.00
2023-01-20T13:35:24.876Z,98706.00
2023-01-20T13:38:00.246Z,98707.00
2023-01-20T13:40:37.232Z,98710.00
2023-01-20T13:43:23.935Z,98717.00
2023-01-20T13:46:15.762Z,98722.00
2023-01-20T13:49:22.106Z,98723.00
2023-01-20T13:51:53.231Z,98739.00
2023-01-20T13:54:25.120Z,98722.00
2023-01-20T13:57:21.645Z,98720.00
2023-01-20T13:59:52.550Z,98725.00
2023-01-20T14:02:28.998Z,98743.00
2023-01-20T14:05:00.234Z,98735.00
2023-01-20T14:07:32.937Z,98736.00
2023-01-20T14:10:04.155Z,98731.00
2023-01-20T14:12:41.529Z,98739.00
2023-01-20T14:15:36.395Z,98730.00
2023-01-20T14:18:15.881Z,98740.00
2023-01-20T14:21:32.233Z,98739.00
2023-01-20T14:24:04.254Z,98743.00
2023-01-20T14:26:35.198Z,98734.00
2023-01-20T14:29:06.049Z,98742.00
2023-01-20T14:31:45.815Z,98745.00
2023-01-20T14:34:32.741Z,98740.00
2023-01-20T14:37:28.295Z,98747.00
2023-01-20T14:40:32.948Z,98745.00
2023-01-20T14:43:17.823Z,98747.00
2023-01-20T14:45:52.733Z,98754.00
2023-01-20T14:48:33.716Z,98747.00
2023-01-20T14:51:06.369Z,98774.00
2023-01-20T14:53:37.241Z,98758.00
2023-01-20T14:56:18.632Z,98759.00
2023-01-20T14:58:58.222Z,98753.00
2023-01-20T15:01:29.232Z,98759.00
2023-01-20T15:04:02.517Z,98762.00
2023-01-20T15:06:33.519Z,98765.00
2023-01-20T15:09:33.137Z,98770.00
2023-01-20T15:12:32.900Z,98769.00
2023-01-20T15:15:31.518Z,98768.00
2023-01-20T15:18:11.460Z,98770.00
2023-01-20T15:20:46.851Z,98779.00
2023-01-20T15:23:36.719Z,98778.00
2023-01-20T15:26:30.084Z,98773.00
2023-01-20T15:29:01.072Z,98775.00
2023-01-20T15:31:32.061Z,98776.00
2023-01-20T15:34:03.467Z,98785.00
2023-01-20T15:36:37.016Z,98788.00
2023-01-20T15:39:29.048Z,98783.00
2023-01-20T15:42:01.483Z,98794.00
2023-01-20T15:44:32.359Z,98782.00
2023-01-20T15:47:27.152Z,98793.00
2023-01-20T15:49:58.696Z,98796.00
2023-01-20T15:52:29.707Z,98811.00
2023-01-20T15:55:00.589Z,98800.00
2023-01-20T15:57:31.426Z,98795.00
2023-01-20T16:00:03.788Z,98811.00
2023-01-20T16:02:34.695Z,98811.00
2023-01-20T16:05:06.165Z,98812.00
2023-01-20T16:07:37.107Z,98820.00
2023-01-20T16:10:16.643Z,98822.00
2023-01-20T16:12:48.324Z,98828.00
2023-01-20T16:15:19.366Z,98823.00
2023-01-20T16:17:55.364Z,98824.00
2023-01-20T16:20:27.221Z,98834.00
2023-01-20T16:22:58.541Z,98837.00
2023-01-20T16:25:30.035Z,98839.00
2023-01-20T16:28:01.739Z,98843.00
2023-01-20T16:30:32.612Z,98832.00
2023-01-20T16:33:03.526Z,98826.00
2023-01-20T16:35:34.407Z,98840.00
2023-01-20T16:38:05.251Z,98838.00
2023-01-20T16:40:36.302Z,98848.00
2023-01-20T16:43:09.953Z,98837.00
2023-01-20T16:45:42.581Z,98845.00
2023-01-20T16:48:13.487Z,98854.00
2023-01-20T16:50:44.810Z,98857.00
2023-01-20T16:53:17.726Z,98862.00
2023-01-20T16:55:49.323Z,98862.00
2023-01-20T16:58:20.283Z,98865.00
2023-01-20T17:00:56.490Z,98865.00
2023-01-20T17:03:30.112Z,98867.00
2023-01-20T17:06:18.112Z,98876.00
2023-01-20T17:08:52.685Z,98876.00
2023-01-20T17:11:30.202Z,98888.00
2023-01-20T17:14:06.954Z,98883.00
2023-01-20T17:16:39.110Z,98886.00
2023-01-20T17:19:10.302Z,98899.00
2023-01-20T17:21:41.476Z,98891.00
2023-01-20T17:24:12.761Z,98880.00
2023-01-20T17:26:43.662Z,98877.00
2023-01-20T17:29:14.626Z,98864.00
2023-01-20T17:31:45.570Z,98867.00
2023-01-20T17:34:16.443Z,98881.00
2023-01-20T17:36:48.569Z,98888.00
2023-01-20T17:39:19.409Z,98898.00
2023-01-20T17:41:50.289Z,98899.00
2023-01-20T17:44:21.133Z,98896.00
2023-01-20T17:46:52.244Z,98916.00
2023-01-20T17:49:23.129Z,98903.00
2023-01-20T17:51:53.986Z,98903.00
2023-01-20T17:54:24.929Z,98905.00
2023-01-20T17:56:58.091Z,98911.00
2023-01-20T17:59:29.005Z,98921.00
2023-01-20T18:01:59.914Z,98918.00
2023-01-20T18:04:31.184Z,98921.00
2023-01-20T18:07:04.091Z,98929.00
2023-01-20T18:09:35.139Z,98908.00
2023-01-20T18:12:06.325Z,98917.00
2023-01-20T18:14:37.185Z,98920.00
2023-01-20T18:17:08.104Z,98934.00
2023-01-20T18:19:39.166Z,98929.00
2023-01-20T18:22:11.552Z,98935.00
2023-01-20T18:24:42.419Z,98931.00
2023-01-20T18:27:14.853Z,98945.00
2023-01-20T18:29:45.831Z,98946.00
2023-01-20T18:32:16.685Z,98946.00
2023-01-20T18:34:48.656Z,98938.00
2023-01-20T18:37:19.501Z,98936.00
2023-01-20T18:39:50.352Z,98931.00
2023-01-20T18:42:21.974Z,98937.00
2023-01-20T18:44:52.932Z,98949.00
2023-01-20T18:47:23.788Z,98944.00
2023-01-20T18:49:54.712Z,98937.00
2023-01-20T18:52:25.557Z,98947.00
2023-01-20T18:54:56.416Z,98941.00
2023-01-20T18:57:27.571Z,98944.00
2023-01-20T18:59:58.475Z,98951.00
2023-01-20T19:02:29.438Z,98954.00
2023-01-20T19:05:03.357Z,98950.00
2023-01-20T19:07:34.208Z,98957.00
2023-01-20T19:10:05.704Z,98961.00
2023-01-20T19:12:36.551Z,98963.00
2023-01-20T19:15:08.179Z,98958.00
2023-01-20T19:17:39.698Z,98964.00
2023-01-20T19:20:11.437Z,98960.00
2023-01-20T19:22:42.297Z,98967.00
2023-01-20T19:25:13.195Z,98964.00
2023-01-20T19:27:44.118Z,98953.00
2023-01-20T19:30:15.746Z,98961.00
2023-01-20T19:32:46.710Z,98958.00
2023-01-20T19:35:17.591Z,98964.00
2023-01-20T19:37:48.596Z,98961.00
2023-01-20T19:40:19.530Z,98965.00
2023-01-20T19:42:52.502Z,98963.00
2023-01-20T19:45:25.459Z,98963.00
2023-01-20T19:47:57.816Z,98957.00
2023-01-20T19:50:28.777Z,98963.00
2023-01-20T19:52:59.642Z,98965.00
2023-01-20T19:55:30.589Z,98961.00
2023-01-20T19:58:03.852Z,98961.00
2023-01-20T20:00:34.732Z,98968.00
2023-01-20T20:03:06.395Z,98967.00
2023-01-20T20:05:38.699Z,98968.00
2023-01-20T20:08:09.585Z,98970.00
2023-01-20T20:10:43.850Z,98970.00
2023-01-20T20:13:15.135Z,98968.00
2023-01-20T20:15:46.062Z,98973.00
2023-01-20T20:18:16.943Z,98970.00
2023-01-20T20:20:47.837Z,98980.00
2023-01-20T20:23:20.057Z,98980.00
2023-01-20T20:25:55.969Z,98979.00
2023-01-20T20:28:28.579Z,98974.00
2023-01-20T20:31:06.047Z,98983.00
2023-01-20T20:33:36.990Z,98987.00
2023-01-20T20:36:10.169Z,98988.00
2023-01-20T20:38:41.554Z,98984.00
2023-01-20T20:41:12.675Z,98981.00
2023-01-20T20:43:43.731Z,98978.00
2023-01-20T20:46:16.504Z,98977.00
2023-01-20T20:48:47.536Z,98991.00
2023-01-20T20:51:18.568Z,98988.00
2023-01-20T20:53:50.014Z,98990.00
2023-01-20T20:56:21.882Z,98995.00
2023-01-20T20:59:01.609Z,98994.00
2023-01-20T21:01:34.691Z,98998.00
2023-01-20T21:04:08.926Z,98999.00
2023-01-20T21:06:39.888Z,98999.00
2023-01-20T21:09:10.804Z,99011.00
2023-01-20T21:11:43.191Z,99006.00
2023-01-20T21:14:14.478Z,98997.00
2023-01-20T21:16:45.330Z,99010.00
2023-01-20T21:19:18.240Z,99004.00
2023-01-20T21:21:49.114Z,99017.00
2023-01-20T21:24:21.875Z,99009.00
2023-01-20T21:26:52.976Z,99008.00
2023-01-20T21:29:26.172Z,99028.00
2023-01-20T21:31:57.552Z,99016.00
2023-01-20T21:34:28.519Z,99011.00
2023-01-20T21:36:59.633Z,99020.00
2023-01-20T21:39:30.569Z,99021.00
2023-01-20T21:42:01.623Z,99018.00
2023-01-20T21:44:34.076Z,99033.00
2023-01-20T21:47:10.653Z,99021.00
2023-01-20T21:50:00.202Z,99021.00
2023-01-20T21:52:42.826Z,99032.00
2023-01-20T21:55:19.129Z,99027.00
2023-01-20T21:57:51.555Z,99033.00
2023-01-20T22:00:23.062Z,99031.00
2023-01-20T22:02:53.923Z,99027.00
2023-01-20T22:05:24.759Z,99025.00
2023-01-20T22:07:55.608Z,99036.00
2023-01-20T22:10:26.492Z,99035.00
2023-01-20T22:12:57.341Z,99041.00
2023-01-20T22:15:29.802Z,99048.00
2023-01-20T22:18:00.650Z,99040.00
2023-01-20T22:20:31.596Z,99037.00
2023-01-20T22:23:03.062Z,99048.00
2023-01-20T22:25:35.119Z,99054.00
2023-01-20T22:28:06.019Z,99043.00
2023-01-20T22:30:37.693Z,99051.00
2023-01-20T22:33:10.060Z,99057.00
2023-01-20T22:35:41.324Z,99054.00
2023-01-20T22:38:12.252Z,99065.00
2023-01-20T22:40:43.102Z,99061.00
2023-01-20T22:43:13.983Z,99059.00
2023-01-20T22:45:47.271Z,99062.00
2023-01-20T22:48:18.968Z,99068.00
2023-01-20T22:50:49.849Z,99073.00
2023-01-20T22:53:20.725Z,99079.00
2023-01-20T22:56:00.599Z,99062.00
2023-01-20T22:58:33.210Z,99076.00
2023-01-20T23:01:04.461Z,99081.00
2023-01-20T23:03:35.374Z,99070.00
2023-01-20T23:06:06.809Z,99084.00
2023-01-20T23:08:38.740Z,99070.00
2023-01-20T23:11:15.398Z,99069.00
2023-01-20T23:13:46.923Z,99081.00
2023-01-20T23:16:22.299Z,99075.00
2023-01-20T23:18:53.531Z,99074.00
2023-01-20T23:21:24.548Z,99071.00
2023-01-20T23:23:55.612Z,99073.00
2023-01-20T23:26:29.621Z,99074.00
2023-01-20T23:29:00.544Z,99077.00
2023-01-20T23:31:33.602Z,99083.00
2023-01-20T23:34:04.629Z,99082.00
2023-01-20T23:36:35.523Z,99076.00
2023-01-20T23:39:06.373Z,99064.00
2023-01-20T23:41:37.284Z,99073.00
2023-01-20T23:44:10.098Z,99075.00
2023-01-20T23:46:41.027Z,99078.00
2023-01-20T23:49:11.894Z,99087.00
2023-01-20T23:51:42.791Z,99087.00
2023-01-20T23:54:13.631Z,99094.00
2023-01-20T23:56:44.507Z,99104.00
2023-01-20T23:59:15.436Z,99102.00
